Flight Track Log - Related Links

Times and Time Zones

All times are in EDT time to prevent confusion due to time zone crossing. See the DAL1550 flight status page for this flight to view local times or setup timezone preferences in your user account.

Time Position Orientation Groundspeed Altitude Reporting Facility
EDT Latitude Longitude Course Direction KTS MPH feet Rate Location/Type
Fri 03:01:29 PM 36.0753 -115.1844 39° Northeast 197 227 3,200  Level Los Angeles Center
Fri 03:03:01 PM 36.1011 -115.2931 286° West 244 281 7,000 2,473 Climbing Los Angeles Center
Fri 03:04:00 PM 36.1833 -114.8989 90° East  Level FlightAware Approximate
Fri 03:04:14 PM 36.1783 -115.2544 22° Northeast 262 302 10,000  Level Los Angeles Center
Fri 03:05:00 PM 36.2141 -114.7526 39° Northeast  Level FlightAware Approximate
Fri 03:05:16 PM 36.1950 -115.1556 78° East 310 357 11,100  Level Los Angeles Center
Fri 03:06:00 PM 36.3124 -114.6543 39° Northeast  Level FlightAware Approximate
Fri 03:06:18 PM 36.1961 -115.0339 89° East 349 402 12,500  Level Los Angeles Center
Fri 03:07:20 PM 36.1975 -114.8950 89° East 394 453 13,900 1,306 Climbing Los Angeles Center
Fri 03:08:22 PM 36.2272 -114.7567 75° East 430 495 15,200 1,776 Climbing Los Angeles Center
Fri 03:09:25 PM 36.3383 -114.6517 37° Northeast 422 486 17,600 1,824 Climbing Los Angeles Center
Fri 03:10:27 PM 36.4297 -114.5619 38° Northeast 420 483 19,000 1,210 Climbing Los Angeles Center
Fri 03:11:29 PM 36.5258 -114.4711 37° Northeast 431 496 20,100 1,016 Climbing Los Angeles Center
Fri 03:12:31 PM 36.6306 -114.3875 33° Northeast 445 512 21,100 1,016 Climbing Los Angeles Center
Fri 03:13:33 PM 36.7383 -114.3028 32° Northeast 456 525 22,200 1,258 Climbing Los Angeles Center
Fri 03:14:35 PM 36.8708 -114.2019 31° Northeast 465 535 23,700 1,500 Climbing Los Angeles Center
Fri 03:15:37 PM 36.9797 -114.1169 32° Northeast 462 532 25,300 1,248 Climbing Los Angeles Center
Fri 03:16:40 PM 37.0869 -114.0336 32° Northeast 456 525 26,300 1,104 Climbing Los Angeles Center
Fri 03:17:42 PM 37.1931 -113.9475 33° Northeast 456 525 27,600 1,306 Climbing Los Angeles Center
Fri 03:18:44 PM 37.3067 -113.8586 32° Northeast 450 518 29,000 1,258 Climbing Los Angeles Center
Fri 03:19:46 PM 37.4097 -113.7767 32° Northeast 442 509 30,200 968 Climbing Los Angeles Center
Fri 03:20:48 PM 37.5133 -113.6947 32° Northeast 439 505 31,000 387 Climbing Los Angeles Center
Fri 03:21:50 PM 37.6156 -113.6156 32° Northeast 433 498 31,000  Level Los Angeles Center
Fri 03:22:58 PM 37.7364 -113.5144 33° Northeast 434 499 31,000  Level Salt Lake Center
Fri 03:24:00 PM 37.8136 -113.3858 53° Northeast 452 520 31,000  Level Salt Lake Center
Fri 03:25:02 PM 37.8825 -113.2469 58° Northeast 460 529 31,000  Level Salt Lake Center
Fri 03:26:03 PM 37.9500 -113.1075 58° Northeast 461 531 31,000  Level Salt Lake Center
Fri 03:27:05 PM 38.0192 -112.9672 58° Northeast 464 534 31,000  Level Salt Lake Center
Fri 03:28:07 PM 38.1003 -112.7978 59° Northeast 466 536 31,000  Level Salt Lake Center
Fri 03:29:09 PM 38.1681 -112.6569 58° Northeast 465 535 31,000  Level Salt Lake Center
Fri 03:30:11 PM 38.2344 -112.5150 59° Northeast 466 536 31,000  Level Salt Lake Center
Fri 03:31:13 PM 38.3008 -112.3750 59° Northeast 463 533 31,000  Level Salt Lake Center
Fri 03:32:15 PM 38.3678 -112.2314 59° Northeast 470 541 31,000  Level Salt Lake Center
Fri 03:33:16 PM 38.4342 -112.0914 59° Northeast 464 534 31,000  Level Salt Lake Center
Fri 03:34:18 PM 38.5006 -111.9500 59° Northeast 464 534 31,000  Level Salt Lake Center
Fri 03:35:20 PM 38.5669 -111.8069 59° Northeast 467 537 31,000  Level Salt Lake Center
Fri 03:36:22 PM 38.6456 -111.6369 59° Northeast 465 535 31,000  Level Salt Lake Center
Fri 03:37:24 PM 38.7114 -111.4947 59° Northeast 465 535 31,000  Level Salt Lake Center
Fri 03:38:26 PM 38.7778 -111.3528 59° Northeast 464 534 31,000  Level Salt Lake Center
Fri 03:39:28 PM 38.8436 -111.2078 60° Northeast 470 541 31,000  Level Salt Lake Center
Fri 03:40:29 PM 38.9094 -111.0647 59° Northeast 468 539 31,000  Level Salt Lake Center
Fri 03:41:31 PM 38.9747 -110.9164 60° Northeast 469 540 31,000  Level Salt Lake Center
Fri 03:42:33 PM 39.0472 -110.7544 60° Northeast 469 540 31,000  Level Salt Lake Center
Fri 03:43:35 PM 39.1158 -110.6011 60° Northeast 466 536 31,000  Level Salt Lake Center
Fri 03:44:05 PM 39.1386 -110.5431 63° Northeast 471 542 31,000  Level Denver Center
Fri 03:45:07 PM 39.2122 -110.3808 60° Northeast 471 542 31,000  Level Denver Center
Fri 03:45:38 PM 39.2439 -110.3128 59° Northeast 470 541 31,000  Level Salt Lake Center
Fri 03:46:40 PM 39.3156 -110.1486 61° Northeast 471 542 31,000  Level Salt Lake Center
Fri 03:47:42 PM 39.3775 -110.0069 60° Northeast 472 543 31,000  Level Salt Lake Center
Fri 03:48:12 PM 39.4078 -109.9350 61° Northeast 473 544 31,000  Level Denver Center
Fri 03:48:44 PM 39.4500 -109.8422 59° Northeast 471 542 31,000  Level Salt Lake Center
Fri 03:49:14 PM 39.4803 -109.7697 62° Northeast 473 544 31,000  Level Denver Center
Fri 03:50:16 PM 39.5414 -109.6269 61° Northeast 473 544 31,000  Level Denver Center
Fri 03:50:47 PM 39.5731 -109.5578 59° Northeast 471 542 31,000  Level Salt Lake Center
Fri 03:51:49 PM 39.6447 -109.3889 61° Northeast 476 548 31,000  Level Salt Lake Center
Fri 03:52:50 PM 39.7067 -109.2456 61° Northeast 476 548 31,000  Level Salt Lake Center
Fri 03:53:52 PM 39.7789 -109.0789 61° Northeast 471 542 31,000  Level Salt Lake Center
Fri 03:54:24 PM 39.8089 -109.0053 62° Northeast 470 541 31,000  Level Denver Center
Fri 03:55:26 PM 39.8689 -108.8606 62° Northeast 468 539 31,000  Level Denver Center
Fri 03:56:28 PM 39.9397 -108.6928 61° Northeast 467 537 31,000  Level Denver Center
Fri 03:57:30 PM 39.9997 -108.5486 61° Northeast 468 539 31,000  Level Denver Center
Fri 03:58:32 PM 40.0692 -108.3819 61° Northeast 466 536 31,000  Level Denver Center
Fri 03:59:34 PM 40.1286 -108.2386 61° Northeast 468 539 31,000  Level Denver Center
Fri 04:00:49 PM 40.2067 -108.0464 62° Northeast 467 537 31,000  Level Denver Center
Fri 04:01:51 PM 40.2656 -107.9039 62° Northeast 465 535 31,000  Level Denver Center
Fri 04:02:53 PM 40.3344 -107.7375 61° Northeast 464 534 31,000  Level Denver Center
Fri 04:03:55 PM 40.3925 -107.5942 62° Northeast 464 534 31,000  Level Denver Center
Fri 04:04:57 PM 40.4606 -107.4281 62° Northeast 463 533 31,000  Level Denver Center
Fri 04:05:59 PM 40.5186 -107.2828 62° Northeast 466 536 31,000  Level Denver Center
Fri 04:07:01 PM 40.5844 -107.1175 62° Northeast 469 540 31,000  Level Denver Center
Fri 04:08:03 PM 40.6461 -106.9639 62° Northeast 472 543 31,000  Level Denver Center
Fri 04:09:05 PM 40.7064 -106.8119 62° Northeast 468 539 31,000  Level Denver Center
Fri 04:10:07 PM 40.7686 -106.6519 63° Northeast 473 544 31,000  Level Denver Center
Fri 04:11:09 PM 40.8236 -106.5056 64° Northeast 467 537 31,000  Level Denver Center
Fri 04:12:11 PM 40.8906 -106.3356 62° Northeast 468 539 31,000  Level Denver Center
Fri 04:13:13 PM 40.9478 -106.1914 62° Northeast 464 534 31,000  Level Denver Center
Fri 04:14:15 PM 41.0072 -106.0342 63° Northeast 465 535 31,000  Level Denver Center
Fri 04:15:17 PM 41.0753 -105.8556 63° Northeast 470 541 31,000  Level Denver Center
Fri 04:16:19 PM 41.1314 -105.7100 63° Northeast 465 535 31,000  Level Denver Center
Fri 04:17:21 PM 41.1964 -105.5375 63° Northeast 466 536 31,000  Level Denver Center
Fri 04:18:23 PM 41.2506 -105.3900 64° Northeast 466 536 31,000  Level Denver Center
Fri 04:19:25 PM 41.3133 -105.2189 64° Northeast 463 533 31,000  Level Denver Center
Fri 04:20:27 PM 41.3678 -105.0719 64° Northeast 463 533 31,000  Level Denver Center
Fri 04:21:29 PM 41.4308 -104.8983 64° Northeast 466 536 31,000  Level Denver Center
Fri 04:22:31 PM 41.4858 -104.7528 63° Northeast 462 532 31,000  Level Denver Center
Fri 04:23:33 PM 41.5397 -104.6044 64° Northeast 464 534 31,000  Level Denver Center
Fri 04:24:35 PM 41.6019 -104.4314 64° Northeast 464 534 31,000  Level Denver Center
Fri 04:25:37 PM 41.6556 -104.2833 64° Northeast 463 533 31,000  Level Denver Center
Fri 04:26:39 PM 41.7178 -104.1103 64° Northeast 466 536 31,000  Level Denver Center
Fri 04:27:41 PM 41.7708 -103.9625 64° Northeast 463 533 31,000  Level Denver Center
Fri 04:28:43 PM 41.8325 -103.7872 65° Northeast 467 537 31,000  Level Denver Center
Fri 04:29:45 PM 41.8858 -103.6375 64° Northeast 468 539 31,000  Level Denver Center
Fri 04:30:47 PM 41.9475 -103.4636 64° Northeast 463 533 31,000  Level Denver Center
Fri 04:31:49 PM 42.0008 -103.3136 64° Northeast 466 536 31,000  Level Denver Center
Fri 04:32:51 PM 42.0619 -103.1381 65° Northeast 466 536 31,000  Level Denver Center
Fri 04:33:53 PM 42.1142 -102.9892 65° Northeast 463 533 31,000  Level Denver Center
Fri 04:34:55 PM 42.1756 -102.8125 65° Northeast 467 537 31,000  Level Denver Center
Fri 04:35:57 PM 42.2269 -102.6614 65° Northeast 466 536 31,000  Level Denver Center
Fri 04:36:59 PM 42.2878 -102.4844 65° Northeast 466 536 31,000  Level Denver Center
Fri 04:38:01 PM 42.3392 -102.3333 65° Northeast 465 535 31,000  Level Denver Center
Fri 04:39:03 PM 42.3983 -102.1569 66° East 463 533 31,000  Level Denver Center
Fri 04:40:05 PM 42.4492 -102.0058 65° Northeast 462 532 31,000  Level Denver Center
Fri 04:41:07 PM 42.5089 -101.8289 65° Northeast 462 532 31,000  Level Denver Center
Fri 04:42:09 PM 42.5503 -101.7003 66° East 461 531 31,000  Level Denver Center
Fri 04:43:11 PM 42.6175 -101.4967 66° East 464 534 31,000  Level Denver Center
Fri 04:44:13 PM 42.6681 -101.3419 66° East 467 537 31,000  Level Denver Center
Fri 04:45:15 PM 42.7186 -101.1892 66° East 464 534 31,000  Level Denver Center
Fri 04:46:17 PM 42.7725 -101.0217 66° East 461 531 31,000  Level Denver Center
Fri 04:47:19 PM 42.8239 -100.8594 67° East 465 535 31,000  Level Denver Center
Fri 04:48:20 PM 42.8744 -100.6969 67° East 466 536 31,000  Level Denver Center
Fri 04:49:22 PM 42.9361 -100.5053 66° East 463 533 31,000  Level Denver Center
Fri 04:49:37 PM 42.9467 -100.4728 66° East 464 534 31,000  Level Minneapolis Center
Fri 04:50:24 PM 42.9872 -100.3442 67° East 464 534 31,000  Level Denver Center
Fri 04:51:26 PM 43.0369 -100.1850 67° East 459 528 31,000  Level Denver Center
Fri 04:52:28 PM 43.0764 -100.0564 67° East 459 528 31,000  Level Denver Center
Fri 04:52:43 PM 43.0967 -99.9922 67° East 460 529 31,000  Level Minneapolis Center
Fri 04:53:45 PM 43.1469 -99.8331 67° East 459 528 31,000  Level Minneapolis Center
Fri 04:54:47 PM 43.2053 -99.6394 67° East 459 528 31,000  Level Minneapolis Center
Fri 04:55:48 PM 43.2533 -99.4778 68° East 459 528 31,000  Level Minneapolis Center
Fri 04:56:50 PM 43.3028 -99.3164 67° East 460 529 31,000  Level Minneapolis Center
Fri 04:57:53 PM 43.3503 -99.1553 68° East 458 527 31,000  Level Minneapolis Center
Fri 04:58:54 PM 43.4047 -98.9736 68° East 461 531 31,000  Level Minneapolis Center
Fri 04:59:59 PM 43.4578 -98.7981 67° East 461 531 31,000  Level Minneapolis Center
Fri 05:01:01 PM 43.5064 -98.6369 67° East 459 528 31,000  Level Minneapolis Center
Fri 05:02:03 PM 43.5519 -98.4844 68° East 464 534 31,000  Level Minneapolis Center
Fri 05:03:05 PM 43.6081 -98.2892 68° East 461 531 31,000  Level Minneapolis Center
Fri 05:04:07 PM 43.6550 -98.1272 68° East 457 526 31,000  Level Minneapolis Center
Fri 05:05:09 PM 43.7014 -97.9650 68° East 455 524 31,000  Level Minneapolis Center
Fri 05:06:10 PM 43.7386 -97.8358 68° East 456 525 31,000  Level Minneapolis Center
Fri 05:07:13 PM 43.7944 -97.6397 68° East 457 526 31,000  Level Minneapolis Center
Fri 05:08:15 PM 43.8392 -97.4792 69° East 450 518 31,000  Level Minneapolis Center
Fri 05:09:17 PM 43.8942 -97.2856 68° East 451 519 31,000  Level Minneapolis Center
Fri 05:10:19 PM 43.9386 -97.1228 69° East 452 520 31,000  Level Minneapolis Center
Fri 05:11:21 PM 43.9842 -96.9583 69° East 457 526 31,000  Level Minneapolis Center
Fri 05:12:23 PM 44.0289 -96.7947 69° East 455 524 31,000  Level Minneapolis Center
Fri 05:13:25 PM 44.0736 -96.6306 69° East 455 524 31,000  Level Minneapolis Center
Fri 05:14:27 PM 44.1178 -96.4672 69° East 453 521 31,000  Level Minneapolis Center
Fri 05:15:29 PM 44.1625 -96.3036 69° East 453 521 31,000  Level Minneapolis Center
Fri 05:16:31 PM 44.2106 -96.1275 69° East 447 514 31,000  Level Minneapolis Center
Fri 05:17:35 PM 44.2617 -95.9333 70° East 446 513 31,000  Level Minneapolis Center
Fri 05:18:37 PM 44.3047 -95.7692 70° East 450 518 31,000  Level Minneapolis Center
Fri 05:19:39 PM 44.3475 -95.6044 70° East 453 521 31,000 -98 Level Minneapolis Center
Fri 05:20:40 PM 44.3900 -95.4372 70° East 457 526 30,800 -732 Descending Minneapolis Center
Fri 05:21:42 PM 44.4325 -95.2692 70° East 459 528 29,500 -1,839 Descending Minneapolis Center
Fri 05:22:44 PM 44.4750 -95.0994 71° East 463 533 27,000 -2,758 Descending Minneapolis Center
Fri 05:23:46 PM 44.5167 -94.9306 71° East 461 531 23,800 -3,194 Descending Minneapolis Center
Fri 05:24:48 PM 44.5608 -94.7336 72° East 447 514 20,400 -2,855 Descending Minneapolis Center
Fri 05:25:50 PM 44.5978 -94.5767 72° East 427 491 17,900 -2,596 Descending Minneapolis Center
Fri 05:26:32 PM 44.6264 -94.4808 67° East 403 464 15,900 -2,951 Descending FAA TRACON SMA TRACON (SMA)
Fri 05:26:51 PM 44.6383 -94.4242 73° East 395 455 14,900 -2,769 Descending FAA TRACON SMA TRACON (SMA)
Fri 05:27:11 PM 44.6478 -94.3794 73° East 389 448 14,100 -2,400 Descending FAA TRACON SMA TRACON (SMA)
Fri 05:27:31 PM 44.6572 -94.3353 73° East 384 442 13,300 -2,700 Descending FAA TRACON SMA TRACON (SMA)
Fri 05:27:51 PM 44.6697 -94.2814 72° East 378 435 12,300 -2,700 Descending FAA TRACON SMA TRACON (SMA)
Fri 05:28:11 PM 44.6789 -94.2381 73° East 375 432 11,500 -1,800 Descending FAA TRACON SMA TRACON (SMA)
Fri 05:28:31 PM 44.6878 -94.1958 73° East 370 426 11,100 -769 Descending FAA TRACON SMA TRACON (SMA)
Fri 05:28:50 PM 44.6978 -94.1539 71° East 367 422 11,000 -154 Descending FAA TRACON SMA TRACON (SMA)
Fri 05:29:10 PM 44.7100 -94.1006 72° East 370 426 11,000  Level FAA TRACON SMA TRACON (SMA)
Fri 05:29:30 PM 44.7186 -94.0581 74° East 369 425 11,000  Level FAA TRACON SMA TRACON (SMA)
Fri 05:29:50 PM 44.7275 -94.0153 74° East 370 426 11,000  Level FAA TRACON SMA TRACON (SMA)
Fri 05:30:10 PM 44.7403 -93.9625 71° East 369 425 11,000  Level FAA TRACON SMA TRACON (SMA)
Fri 05:30:51 PM 44.7606 -93.8797 71° East 363 418 11,000  Level FAA TRACON SMA TRACON (SMA)
Fri 05:31:10 PM 44.7717 -93.8272 73° East 364 419 11,000  Level FAA TRACON SMA TRACON (SMA)
Fri 05:31:30 PM 44.7808 -93.7847 73° East 367 422 11,000  Level FAA TRACON SMA TRACON (SMA)
Fri 05:31:50 PM 44.7889 -93.7431 75° East 364 419 11,000  Level FAA TRACON SMA TRACON (SMA)
Fri 05:32:10 PM 44.7994 -93.6903 74° East 362 417 11,000  Level FAA TRACON SMA TRACON (SMA)
Fri 05:32:31 PM 44.8083 -93.6492 73° East 360 414 11,000  Level FAA TRACON SMA TRACON (SMA)
Fri 05:32:51 PM 44.8172 -93.6072 73° East 361 415 11,000  Level FAA TRACON SMA TRACON (SMA)
Fri 05:33:11 PM 44.8272 -93.5553 75° East 359 413 11,000  Level FAA TRACON SMA TRACON (SMA)
Fri 05:33:31 PM 44.8364 -93.5139 73° East 360 414 11,000 -300 Level FAA TRACON SMA TRACON (SMA)
Fri 05:33:51 PM 44.8447 -93.4736 74° East 352 405 10,800 -600 Descending FAA TRACON SMA TRACON (SMA)
Fri 05:34:11 PM 44.8550 -93.4269 73° East 328 377 10,600 -600 Descending FAA TRACON SMA TRACON (SMA)
Fri 05:34:31 PM 44.8572 -93.3906 85° East 315 362 10,400 -450 Descending FAA TRACON SMA TRACON (SMA)
Fri 05:34:51 PM 44.8469 -93.3567 113° Southeast 313 360 10,300 -1,231 Descending FAA TRACON SMA TRACON (SMA)
Fri 05:35:10 PM 44.8269 -93.3186 127° Southeast 312 359 9,600 -1,950 Descending FAA TRACON SMA TRACON (SMA)
Fri 05:35:31 PM 44.8111 -93.2881 126° Southeast 313 360 9,000 -1,650 Descending FAA TRACON SMA TRACON (SMA)
Fri 05:35:50 PM 44.7964 -93.2572 124° Southeast 310 357 8,500 -1,231 Descending FAA TRACON SMA TRACON (SMA)
Fri 05:36:10 PM 44.7786 -93.2222 126° Southeast 291 335 8,200 -732 Descending FAA TRACON SMA TRACON (SMA)
Fri 05:36:31 PM 44.7644 -93.1958 127° Southeast 277 319 8,000 -878 Descending FAA TRACON SMA TRACON (SMA)
Fri 05:36:51 PM 44.7508 -93.1717 128° Southeast 259 298 7,600 -1,500 Descending FAA TRACON SMA TRACON (SMA)
Fri 05:37:11 PM 44.7350 -93.1425 127° Southeast 246 283 7,000 -1,800 Descending FAA TRACON SMA TRACON (SMA)
Fri 05:37:31 PM 44.7231 -93.1194 126° Southeast 238 274 6,400 -2,100 Descending FAA TRACON SMA TRACON (SMA)
Fri 05:37:51 PM 44.7111 -93.0881 118° Southeast 237 273 5,600 -2,100 Descending FAA TRACON SMA TRACON (SMA)
Fri 05:38:11 PM 44.7022 -93.0628 116° Southeast 235 270 5,000 -900 Descending FAA TRACON SMA TRACON (SMA)
Fri 05:38:31 PM 44.6964 -93.0361 107° East 235 270 5,000  Level FAA TRACON SMA TRACON (SMA)
Fri 05:38:54 PM 44.6931 -93.0006 98° East 236 272 5,000 -140 Level FAA TRACON SMA TRACON (SMA)
Fri 05:39:14 PM 44.6906 -92.9683 96° East 223 257 4,900 -167 Descending FAA TRACON SMA TRACON (SMA)
Fri 05:39:30 PM 44.6956 -92.9519 67° East 217 250 4,900 167 Level FAA TRACON SMA TRACON (SMA)
Fri 05:39:50 PM 44.7075 -92.9358 44° Northeast 203 234 5,000  Climbing FAA TRACON SMA TRACON (SMA)
Fri 05:40:10 PM 44.7239 -92.9192 36° Northeast 192 221 4,900  Descending FAA TRACON SMA TRACON (SMA)
Fri 05:40:30 PM 44.7383 -92.9214 354° North 191 220 5,000 150 Climbing FAA TRACON SMA TRACON (SMA)
Fri 05:40:50 PM 44.7497 -92.9331 324° Northwest 173 199 5,000 -150 Level FAA TRACON SMA TRACON (SMA)
Fri 05:41:10 PM 44.7614 -92.9486 317° Northwest 155 178 4,900 -150 Descending FAA TRACON SMA TRACON (SMA)
Fri 05:41:30 PM 44.7692 -92.9628 308° West 150 173 4,900 -150 Level FAA TRACON SMA TRACON (SMA)
Fri 05:41:50 PM 44.7767 -92.9778 305° West 151 174 4,800 -732 Descending FAA TRACON SMA TRACON (SMA)
Fri 05:42:11 PM 44.7853 -92.9975 302° West 153 176 4,400 -1,024 Descending FAA TRACON SMA TRACON (SMA)
Fri 05:42:31 PM 44.7919 -93.0125 302° West 150 173 4,100 -923 Descending FAA TRACON SMA TRACON (SMA)
Fri 05:42:50 PM 44.7986 -93.0278 302° West 149 171 3,800 -923 Descending FAA TRACON SMA TRACON (SMA)
Fri 05:43:10 PM 44.8067 -93.0469 301° West 146 168 3,500 -900 Descending FAA TRACON SMA TRACON (SMA)
Fri 05:43:30 PM 44.8131 -93.0614 302° West 143 165 3,200 -769 Descending FAA TRACON SMA TRACON (SMA)
Fri 05:43:49 PM 44.8203 -93.0775 302° West 153 176 3,000 -632 Descending FAA TRACON SMA TRACON (SMA)

Login

Don't have an account? Register now (free) for customized features, flight alerts, and more!